Aérodrome :
LOGIN :

S'inscrire | Disclaimer

   EN    FR    IT 

 










Légende :    VFR   VFR Marginal   IFR   IFR Intensif   IFR Très Intensif
Visi : 
Plafond : 
>= 8 km
>= 3000ft
5 à 8 km
1000 à 3000 ft
1500m à 5 km
500 à 1000 ft
800 à 1500m
200 à 500 ft
< 800m
< 200 ft
Symboles :   Orages  Brouillard  Fortes neiges  Fortes précipitations  Vent > 20 kt
SIGMETs :   Divers  Orages  Givrage  Turbulence  Onde Orograph.  Cendres Volcan.







- Altitude de l'aérodrome : 446 ft
- Code IATA : VNE
- Voir les cartes d'approche


LFRV - Vannes-Meucon

DERNIER METAR :
  • 211900Z AUTO 28005KT CAVOK 16/10 Q1019

METARs EXPIRÉS :
  • 211830Z AUTO 28007KT CAVOK 17/10 Q1019
  • 211800Z AUTO 27007KT 240V300 CAVOK 18/10 Q1019
  • 211730Z AUTO 28008KT CAVOK 19/10 Q1019
  • 211700Z AUTO 26008KT 220V300 9999 FEW037 SCT090 19/11 Q1019
  • 211630Z AUTO 25007KT 200V280 9999 FEW041 SCT052 BKN084 19/11 Q1019
  • 211600Z AUTO 25007KT 210V290 9999 BKN039 BKN045 19/11 Q1019

TAF N/A
Pas de NOTAMs connus pour ce terrain.



MET'MAP, la Météo Aéronautique d'un coup d'oeil ! - Copyright ORBIFLY Décembre 2007 - Disclaimer

ORBIFLY MET'MAP TEAM :

Programmation & Développement : Alexandra Zaïnal
Conception & Développement : Baudouin d'Aumeries
Co-Programmation & Développement : Marc-Olivier Méhu
Soutien technique & logistique : Manuel Goepfert

Contact : metmap@orbifly.com




SOURCES & CREDITS :

   NOAA